createdAt,value
2023-01-19T00:01:00.279Z,96908.13
2023-01-19T00:03:28.669Z,96909.84
2023-01-19T00:05:55.356Z,96907.19
2023-01-19T00:08:25.481Z,96916.69
2023-01-19T00:10:54.116Z,96914.94
2023-01-19T00:13:20.691Z,96921.78
2023-01-19T00:15:50.628Z,96918.06
2023-01-19T00:18:17.298Z,96919.16
2023-01-19T00:20:46.430Z,96915.88
2023-01-19T00:23:14.127Z,96919.16
2023-01-19T00:25:44.545Z,96922.09
2023-01-19T00:28:12.451Z,96923.81
2023-01-19T00:30:40.028Z,96921.94
2023-01-19T00:33:08.318Z,96930.06
2023-01-19T00:35:36.055Z,96934.59
2023-01-19T00:38:03.482Z,96931.31
2023-01-19T00:40:31.673Z,96924.00
2023-01-19T00:42:58.856Z,96924.97
2023-01-19T00:45:25.775Z,96929.94
2023-01-19T00:47:57.324Z,96936.00
2023-01-19T00:50:25.781Z,96936.00
2023-01-19T00:52:53.612Z,96934.16
2023-01-19T00:55:21.125Z,96932.75
2023-01-19T00:57:47.712Z,96942.72
2023-01-19T01:00:19.783Z,96936.81
2023-01-19T01:02:47.662Z,96940.41
2023-01-19T01:05:14.372Z,96946.16
2023-01-19T01:07:41.539Z,96948.19
2023-01-19T01:10:12.005Z,96943.53
2023-01-19T01:12:39.375Z,96943.53
2023-01-19T01:15:08.868Z,96940.88
2023-01-19T01:17:37.640Z,96942.13
2023-01-19T01:20:06.606Z,96943.69
2023-01-19T01:22:33.110Z,96952.09
2023-01-19T01:25:01.353Z,96951.97
2023-01-19T01:27:27.856Z,96949.78
2023-01-19T01:29:54.395Z,96956.94
2023-01-19T01:32:31.532Z,96957.13
2023-01-19T01:35:00.796Z,96954.16
2023-01-19T01:37:27.321Z,96948.06
2023-01-19T01:39:54.085Z,96958.66
2023-01-19T01:42:26.660Z,96958.06
2023-01-19T01:44:58.537Z,96964.28
2023-01-19T01:47:45.757Z,96965.06
2023-01-19T01:50:22.482Z,96959.00
2023-01-19T01:53:05.934Z,96959.00
2023-01-19T01:55:42.367Z,96962.56
2023-01-19T01:58:13.579Z,96961.31
2023-01-19T02:00:59.226Z,96955.38
2023-01-19T02:03:27.025Z,96961.16
2023-01-19T02:06:01.986Z,96960.53
2023-01-19T02:08:56.204Z,96959.25
2023-01-19T02:11:43.059Z,96964.56
2023-01-19T02:14:09.538Z,96958.94
2023-01-19T02:16:37.539Z,96962.38
2023-01-19T02:19:07.485Z,96965.03
2023-01-19T02:21:44.554Z,96968.16
2023-01-19T02:24:13.192Z,96967.84
2023-01-19T02:26:45.978Z,96966.91
2023-01-19T02:29:18.120Z,96965.97
2023-01-19T02:31:47.998Z,96969.88
2023-01-19T02:34:21.748Z,96966.16
2023-01-19T02:36:54.362Z,96962.41
2023-01-19T02:39:28.026Z,96965.50
2023-01-19T02:42:04.154Z,96972.06
2023-01-19T02:44:34.094Z,96975.16
2023-01-19T02:47:03.747Z,96965.81
2023-01-19T02:49:31.030Z,96971.13
2023-01-19T02:52:03.321Z,96975.66
2023-01-19T02:54:48.143Z,96979.38
2023-01-19T02:57:26.890Z,96976.44
2023-01-19T03:00:08.103Z,96977.22
2023-01-19T03:02:49.752Z,96983.13
2023-01-19T03:05:34.248Z,96978.63
2023-01-19T03:08:08.043Z,96983.91
2023-01-19T03:10:53.234Z,96983.44
2023-01-19T03:13:50.697Z,96982.34
2023-01-19T03:16:44.094Z,96986.88
2023-01-19T03:19:23.637Z,96985.31
2023-01-19T03:21:54.571Z,96985.63
2023-01-19T03:24:24.415Z,96981.72
2023-01-19T03:27:06.320Z,96982.81
2023-01-19T03:29:35.057Z,96985.78
2023-01-19T03:32:06.168Z,96993.25
2023-01-19T03:34:34.847Z,96984.81
2023-01-19T03:37:06.774Z,96978.31
2023-01-19T03:39:34.409Z,96974.41
2023-01-19T03:42:12.160Z,96970.00
2023-01-19T03:44:40.520Z,96982.63
2023-01-19T03:47:10.070Z,96980.44
2023-01-19T03:49:41.383Z,96987.44
2023-01-19T03:52:07.919Z,96984.31
2023-01-19T03:54:34.576Z,96981.97
2023-01-19T03:57:01.270Z,96980.41
2023-01-19T03:59:27.789Z,96980.41
2023-01-19T04:01:54.307Z,96984.16
2023-01-19T04:04:20.999Z,96984.47
2023-01-19T04:06:47.526Z,96984.91
2023-01-19T04:09:14.024Z,96988.34
2023-01-19T04:11:42.272Z,96989.91
2023-01-19T04:14:08.965Z,96992.56
2023-01-19T04:16:35.628Z,96988.34
2023-01-19T04:19:04.298Z,96990.53
2023-01-19T04:21:30.832Z,96988.50
2023-01-19T04:23:57.299Z,96992.84
2023-01-19T04:26:30.185Z,96992.50
2023-01-19T04:28:57.831Z,96991.25
2023-01-19T04:31:24.422Z,96987.66
2023-01-19T04:33:55.451Z,96997.56
2023-01-19T04:36:21.916Z,96988.22
2023-01-19T04:38:49.111Z,96993.75
2023-01-19T04:41:15.683Z,97000.56
2023-01-19T04:43:42.335Z,97001.47
2023-01-19T04:46:08.860Z,97006.09
2023-01-19T04:48:35.567Z,97001.25
2023-01-19T04:51:02.225Z,96997.97
2023-01-19T04:53:29.045Z,96999.81
2023-01-19T04:55:57.777Z,97005.09
2023-01-19T04:58:24.456Z,96999.63
2023-01-19T05:00:52.254Z,97001.00
2023-01-19T05:03:21.630Z,97009.41
2023-01-19T05:05:48.190Z,97006.97
2023-01-19T05:08:15.021Z,97006.34
2023-01-19T05:10:43.346Z,97009.19
2023-01-19T05:13:09.889Z,97013.56
2023-01-19T05:15:36.388Z,97012.50
2023-01-19T05:18:03.353Z,97011.09
2023-01-19T05:20:30.142Z,97020.28
2023-01-19T05:22:56.662Z,97024.19
2023-01-19T05:25:25.195Z,97025.00
2023-01-19T05:27:51.738Z,97023.72
2023-01-19T05:30:20.696Z,97032.44
2023-01-19T05:32:47.292Z,97030.28
2023-01-19T05:35:15.408Z,97025.75
2023-01-19T05:37:43.178Z,97024.19
2023-01-19T05:40:12.596Z,97028.88
2023-01-19T05:42:41.136Z,97025.16
2023-01-19T05:45:08.465Z,97036.53
2023-01-19T05:47:34.936Z,97027.50
2023-01-19T05:50:01.465Z,97032.16
2023-01-19T05:52:28.023Z,97033.75
2023-01-19T05:54:57.411Z,97040.41
2023-01-19T05:57:24.026Z,97030.63
2023-01-19T05:59:50.614Z,97041.38
2023-01-19T06:02:19.445Z,97038.41
2023-01-19T06:04:45.979Z,97037.03
2023-01-19T06:07:12.917Z,97048.56
2023-01-19T06:09:41.236Z,97046.44
2023-01-19T06:12:07.759Z,97048.47
2023-01-19T06:14:34.303Z,97056.41
2023-01-19T06:17:08.785Z,97065.88
2023-01-19T06:19:35.266Z,97060.31
2023-01-19T06:22:02.416Z,97067.75
2023-01-19T06:24:29.786Z,97061.84
2023-01-19T06:26:56.396Z,97074.00
2023-01-19T06:29:25.474Z,97065.75
2023-01-19T06:31:52.637Z,97077.59
2023-01-19T06:34:19.941Z,97065.94
2023-01-19T06:36:46.756Z,97078.56
2023-01-19T06:39:18.771Z,97082.78
2023-01-19T06:41:45.384Z,97082.47
2023-01-19T06:44:11.847Z,97081.06
2023-01-19T06:46:40.201Z,97076.25
2023-01-19T06:49:06.811Z,97079.38
2023-01-19T06:51:33.687Z,97086.25
2023-01-19T06:54:02.521Z,97089.97
2023-01-19T06:56:29.012Z,97090.75
2023-01-19T06:58:55.622Z,97089.81
2023-01-19T07:01:24.019Z,97091.97
2023-01-19T07:03:50.805Z,97092.09
2023-01-19T07:06:17.271Z,97107.50
2023-01-19T07:08:43.764Z,97098.78
2023-01-19T07:11:26.056Z,97096.91
2023-01-19T07:14:00.502Z,97108.28
2023-01-19T07:16:29.254Z,97110.44
2023-01-19T07:18:57.455Z,97105.00
2023-01-19T07:21:24.072Z,97103.72
2023-01-19T07:23:52.212Z,97111.47
2023-01-19T07:26:26.824Z,97103.97
2023-01-19T07:28:53.551Z,97099.56
2023-01-19T07:31:20.700Z,97102.34
2023-01-19T07:33:49.288Z,97107.44
2023-01-19T07:36:15.844Z,97107.44
2023-01-19T07:38:42.583Z,97117.72
2023-01-19T07:41:11.806Z,97114.31
2023-01-19T07:43:38.346Z,97117.72
2023-01-19T07:46:06.599Z,97120.56
2023-01-19T07:48:35.377Z,97119.34
2023-01-19T07:51:13.134Z,97120.78
2023-01-19T07:53:44.369Z,97123.81
2023-01-19T07:56:14.686Z,97128.06
2023-01-19T07:58:41.197Z,97136.06
2023-01-19T08:01:09.883Z,97133.53
2023-01-19T08:03:36.838Z,97143.06
2023-01-19T08:06:05.197Z,97134.94
2023-01-19T08:08:33.233Z,97141.31
2023-01-19T08:11:00.092Z,97152.06
2023-01-19T08:13:27.168Z,97151.97
2023-01-19T08:15:54.536Z,97153.06
2023-01-19T08:18:21.216Z,97159.50
2023-01-19T08:20:49.558Z,97152.84
2023-01-19T08:23:19.778Z,97156.75
2023-01-19T08:25:46.724Z,97157.53
2023-01-19T08:28:16.187Z,97155.06
2023-01-19T08:30:45.201Z,97157.31
2023-01-19T08:33:14.452Z,97158.44
2023-01-19T08:35:43.125Z,97160.13
2023-01-19T08:38:12.491Z,97166.50
2023-01-19T08:40:41.869Z,97168.50
2023-01-19T08:43:11.034Z,97169.00
2023-01-19T08:45:48.278Z,97170.13
2023-01-19T08:48:20.030Z,97161.22
2023-01-19T08:50:51.284Z,97160.53
2023-01-19T08:53:19.212Z,97159.50
2023-01-19T08:55:45.794Z,97158.28
2023-01-19T08:58:16.847Z,97153.56
2023-01-19T09:00:43.308Z,97148.63
2023-01-19T09:03:13.371Z,97156.19
2023-01-19T09:05:40.990Z,97158.22
2023-01-19T09:08:13.401Z,97162.06
2023-01-19T09:10:52.491Z,97158.06
2023-01-19T09:13:20.312Z,97162.47
2023-01-19T09:15:47.400Z,97164.13
2023-01-19T09:18:17.305Z,97162.41
2023-01-19T09:20:46.083Z,97167.22
2023-01-19T09:23:25.142Z,97167.91
2023-01-19T09:25:57.758Z,97164.88
2023-01-19T09:28:24.434Z,97159.44
2023-01-19T09:30:51.881Z,97163.38
2023-01-19T09:33:19.654Z,97157.69
2023-01-19T09:35:48.371Z,97164.09
2023-01-19T09:38:21.023Z,97161.34
2023-01-19T09:40:52.291Z,97162.16
2023-01-19T09:43:43.553Z,97171.19
2023-01-19T09:46:38.897Z,97169.19
2023-01-19T09:49:19.300Z,97168.88
2023-01-19T09:51:48.707Z,97163.34
2023-01-19T09:54:16.871Z,97160.69
2023-01-19T09:56:47.482Z,97158.09
2023-01-19T09:59:18.844Z,97156.53
2023-01-19T10:02:23.296Z,97147.66
2023-01-19T10:04:59.944Z,97148.06
2023-01-19T10:07:40.171Z,97148.06
2023-01-19T10:10:17.692Z,97153.47
2023-01-19T10:13:10.712Z,97151.13
2023-01-19T10:16:16.173Z,97158.41
2023-01-19T10:18:48.165Z,97157.91
2023-01-19T10:21:19.265Z,97151.66
2023-01-19T10:23:57.495Z,97149.44
2023-01-19T10:26:28.100Z,97156.34
2023-01-19T10:29:02.193Z,97154.31
2023-01-19T10:31:28.967Z,97151.50
2023-01-19T10:33:55.521Z,97152.44
2023-01-19T10:36:29.823Z,97146.44
2023-01-19T10:38:56.564Z,97146.72
2023-01-19T10:41:41.928Z,97143.16
2023-01-19T10:44:10.789Z,97145.06
2023-01-19T10:46:45.961Z,97139.47
2023-01-19T10:49:35.766Z,97137.06
2023-01-19T10:52:05.226Z,97130.38
2023-01-19T10:54:34.450Z,97139.63
2023-01-19T10:57:09.297Z,97142.91
2023-01-19T10:59:49.636Z,97136.81
2023-01-19T11:02:20.753Z,97135.31
2023-01-19T11:04:53.163Z,97129.16
2023-01-19T11:07:33.860Z,97132.66
2023-01-19T11:10:21.342Z,97131.16
2023-01-19T11:12:57.616Z,97133.34
2023-01-19T11:15:30.683Z,97133.81
2023-01-19T11:17:57.659Z,97128.81
2023-01-19T11:20:39.925Z,97126.59
2023-01-19T11:23:20.144Z,97122.13
2023-01-19T11:25:51.678Z,97123.69
2023-01-19T11:28:39.660Z,97117.84
2023-01-19T11:31:17.692Z,97123.69
2023-01-19T11:33:49.779Z,97117.91
2023-01-19T11:36:21.400Z,97121.81
2023-01-19T11:38:55.096Z,97114.84
2023-01-19T11:41:32.043Z,97117.84
2023-01-19T11:44:09.725Z,97111.41
2023-01-19T11:46:39.787Z,97106.38
2023-01-19T11:49:15.598Z,97118.44
2023-01-19T11:51:58.498Z,97113.22
2023-01-19T11:54:33.368Z,97112.41
2023-01-19T11:57:00.581Z,97098.50
2023-01-19T11:59:27.231Z,97108.50
2023-01-19T12:01:58.130Z,97106.03
2023-01-19T12:04:33.569Z,97102.97
2023-01-19T12:07:07.561Z,97102.78
2023-01-19T12:09:44.512Z,97106.31
2023-01-19T12:12:25.671Z,97098.28
2023-01-19T12:15:04.466Z,97101.09
2023-01-19T12:17:37.986Z,97095.16
2023-01-19T12:20:42.889Z,97098.84
2023-01-19T12:23:32.423Z,97098.50
2023-01-19T12:26:27.972Z,97091.91
2023-01-19T12:28:58.674Z,97097.06
2023-01-19T12:31:25.217Z,97100.88
2023-01-19T12:33:51.932Z,97105.63
2023-01-19T12:36:34.039Z,97093.91
2023-01-19T12:39:07.050Z,97093.25
2023-01-19T12:41:36.378Z,97102.31
2023-01-19T12:44:12.128Z,97093.69
2023-01-19T12:46:42.163Z,97097.56
2023-01-19T12:49:34.742Z,97092.88
2023-01-19T12:52:19.630Z,97096.94
2023-01-19T12:55:18.159Z,97090.50
2023-01-19T12:58:21.570Z,97085.22
2023-01-19T13:00:52.692Z,97092.03
2023-01-19T13:03:19.144Z,97100.69
2023-01-19T13:06:02.425Z,97094.00
2023-01-19T13:08:58.708Z,97088.31
2023-01-19T13:11:27.851Z,97088.91
2023-01-19T13:13:58.669Z,97091.78
2023-01-19T13:16:28.279Z,97095.97
2023-01-19T13:18:58.737Z,97093.06
2023-01-19T13:21:43.555Z,97098.34
2023-01-19T13:24:22.509Z,97099.81
2023-01-19T13:26:50.819Z,97094.72
2023-01-19T13:29:34.546Z,97089.63
2023-01-19T13:32:14.548Z,97094.41
2023-01-19T13:34:45.406Z,97102.13
2023-01-19T13:37:29.653Z,97092.50
2023-01-19T13:39:56.908Z,97092.66
2023-01-19T13:42:41.341Z,97085.00
2023-01-19T13:45:22.152Z,97090.03
2023-01-19T13:47:52.517Z,97091.78
2023-01-19T13:50:24.787Z,97092.03
2023-01-19T13:52:54.088Z,97092.81
2023-01-19T13:55:20.781Z,97088.69
2023-01-19T13:57:48.970Z,97090.16
2023-01-19T14:00:25.426Z,97084.13
2023-01-19T14:02:57.238Z,97085.44
2023-01-19T14:05:23.740Z,97078.22
2023-01-19T14:08:04.458Z,97083.66
2023-01-19T14:10:32.212Z,97076.84
2023-01-19T14:13:14.556Z,97083.34
2023-01-19T14:15:41.178Z,97087.59
2023-01-19T14:18:08.892Z,97084.13
2023-01-19T14:20:37.322Z,97088.47
2023-01-19T14:23:05.149Z,97086.50
2023-01-19T14:25:33.702Z,97084.72
2023-01-19T14:28:29.200Z,97088.50
2023-01-19T14:30:57.003Z,97077.94
2023-01-19T14:33:43.699Z,97092.50
2023-01-19T14:36:34.016Z,97084.16
2023-01-19T14:39:02.073Z,97082.38
2023-01-19T14:41:39.347Z,97080.94
2023-01-19T14:44:13.553Z,97077.03
2023-01-19T14:46:48.711Z,97088.47
2023-01-19T14:49:33.347Z,97086.69
2023-01-19T14:52:02.695Z,97086.53
2023-01-19T14:54:45.070Z,97085.78
2023-01-19T14:57:13.835Z,97084.34
2023-01-19T14:59:45.103Z,97082.88
2023-01-19T15:02:14.775Z,97082.00
2023-01-19T15:04:41.309Z,97089.53
2023-01-19T15:07:27.499Z,97085.66
2023-01-19T15:09:54.783Z,97079.56
2023-01-19T15:12:26.886Z,97086.44
2023-01-19T15:14:53.858Z,97090.06
2023-01-19T15:17:31.063Z,97084.63
2023-01-19T15:19:59.919Z,97091.72
2023-01-19T15:22:28.354Z,97084.41
2023-01-19T15:24:57.691Z,97091.50
2023-01-19T15:27:26.579Z,97092.25
2023-01-19T15:29:54.323Z,97087.25
2023-01-19T15:32:20.906Z,97089.78
2023-01-19T15:34:56.103Z,97085.13
2023-01-19T15:37:22.586Z,97080.78
2023-01-19T15:39:49.065Z,97079.88
2023-01-19T15:42:17.523Z,97082.09
2023-01-19T15:44:45.043Z,97082.75
2023-01-19T15:47:14.174Z,97076.84
2023-01-19T15:49:41.027Z,97075.63
2023-01-19T15:52:07.538Z,97071.59
2023-01-19T15:54:34.038Z,97068.50
2023-01-19T15:57:00.712Z,97072.25
2023-01-19T15:59:30.623Z,97070.25
2023-01-19T16:01:57.606Z,97075.09
2023-01-19T16:04:26.074Z,97072.00
2023-01-19T16:06:52.733Z,97066.25
2023-01-19T16:09:20.171Z,97069.09
2023-01-19T16:11:47.046Z,97069.75
2023-01-19T16:14:13.960Z,97066.16
2023-01-19T16:16:42.893Z,97072.91
2023-01-19T16:19:11.124Z,97065.25
2023-01-19T16:21:37.591Z,97074.22
2023-01-19T16:24:04.257Z,97068.94
2023-01-19T16:26:34.553Z,97060.19
2023-01-19T16:29:07.955Z,97070.69
2023-01-19T16:31:43.813Z,97074.47
2023-01-19T16:34:10.507Z,97065.69
2023-01-19T16:39:31.235Z,97067.44
2023-01-19T16:41:57.986Z,97059.00
2023-01-19T16:44:24.490Z,97059.00
2023-01-19T16:46:52.796Z,97061.53
2023-01-19T16:49:21.426Z,97057.34
2023-01-19T16:51:48.922Z,97059.19
2023-01-19T16:54:21.601Z,97061.09
2023-01-19T16:56:48.559Z,97054.84
2023-01-19T16:59:17.340Z,97061.25
2023-01-19T17:01:46.884Z,97058.16
2023-01-19T17:07:05.062Z,97059.25
2023-01-19T17:09:31.552Z,97054.91
2023-01-19T17:11:58.456Z,97052.09
2023-01-19T17:14:35.309Z,97057.41
2023-01-19T17:17:09.267Z,97056.22
2023-01-19T17:19:35.873Z,97052.63
2023-01-19T17:22:02.387Z,97055.63
2023-01-19T17:24:28.902Z,97054.69
2023-01-19T17:26:55.411Z,97049.22
2023-01-19T17:29:23.668Z,97056.88
2023-01-19T17:31:53.120Z,97049.22
2023-01-19T17:34:19.596Z,97049.56
2023-01-19T17:36:46.300Z,97041.56
2023-01-19T17:39:14.917Z,97044.56
2023-01-19T17:41:44.130Z,97042.66
2023-01-19T17:44:13.407Z,97039.56
2023-01-19T17:46:39.966Z,97045.22
2023-01-19T17:49:07.852Z,97047.38
2023-01-19T17:51:36.455Z,97043.50
2023-01-19T17:54:04.134Z,97043.81
2023-01-19T17:56:36.581Z,97045.22
2023-01-19T17:59:07.129Z,97047.44
2023-01-19T18:01:34.839Z,97042.91
2023-01-19T18:04:02.605Z,97046.66
2023-01-19T18:06:31.375Z,97041.69
2023-01-19T18:08:59.249Z,97033.22
2023-01-19T18:11:26.967Z,97040.88
2023-01-19T18:13:54.130Z,97038.53
2023-01-19T18:16:24.155Z,97036.22
2023-01-19T18:18:53.663Z,97038.88
2023-01-19T18:21:21.995Z,97034.66
2023-01-19T18:23:50.124Z,97034.19
2023-01-19T18:26:19.428Z,97034.53
2023-01-19T18:28:51.147Z,97031.38
2023-01-19T18:31:32.873Z,97027.19
2023-01-19T18:34:08.050Z,97022.19
2023-01-19T18:36:34.929Z,97016.09
2023-01-19T18:39:02.075Z,97015.31
2023-01-19T18:41:31.207Z,97013.59
2023-01-19T18:43:58.903Z,97017.69
2023-01-19T18:46:26.106Z,97010.66
2023-01-19T18:49:07.221Z,97013.19
2023-01-19T18:51:33.982Z,97021.34
2023-01-19T18:54:00.514Z,97025.72
2023-01-19T18:56:27.364Z,97021.69
2023-01-19T18:58:53.944Z,97016.53
2023-01-19T19:01:39.438Z,97014.84
2023-01-19T19:04:08.450Z,97004.38
2023-01-19T19:06:35.829Z,97010.97
2023-01-19T19:09:03.574Z,97007.72
2023-01-19T19:11:30.313Z,97009.75
2023-01-19T19:14:00.146Z,97006.16
2023-01-19T19:16:29.546Z,97007.88
2023-01-19T19:18:56.258Z,97013.66
2023-01-19T19:21:25.232Z,97013.53
2023-01-19T19:23:56.390Z,97009.47
2023-01-19T19:26:25.130Z,97014.47
2023-01-19T19:28:51.619Z,97002.16
2023-01-19T19:31:20.838Z,97004.50
2023-01-19T19:33:48.887Z,96999.97
2023-01-19T19:36:18.189Z,97011.84
2023-01-19T19:38:48.242Z,97005.91
2023-01-19T19:41:21.287Z,97007.94
2023-01-19T19:43:48.218Z,97019.47
2023-01-19T19:46:16.708Z,97009.78
2023-01-19T19:48:43.585Z,97017.13
2023-01-19T19:51:18.429Z,97012.75
2023-01-19T19:53:46.185Z,97009.63
2023-01-19T19:56:15.022Z,97010.25
2023-01-19T19:58:42.613Z,97011.94
2023-01-19T20:01:19.352Z,97010.72
2023-01-19T20:03:50.142Z,97012.13
2023-01-19T20:06:21.213Z,97013.50
2023-01-19T20:08:53.328Z,97012.25
2023-01-19T20:11:31.143Z,97016.78
2023-01-19T20:13:57.714Z,97020.06
2023-01-19T20:16:27.790Z,97019.88
2023-01-19T20:18:56.185Z,97022.34
2023-01-19T20:21:28.553Z,97023.28
2023-01-19T20:23:57.049Z,97022.00
2023-01-19T20:26:26.618Z,97025.78
2023-01-19T20:28:54.281Z,97021.69
2023-01-19T20:31:24.754Z,97024.50
2023-01-19T20:33:52.774Z,97022.59
2023-01-19T20:36:22.023Z,97028.53
2023-01-19T20:38:48.526Z,97029.13
2023-01-19T20:41:19.537Z,97031.59
2023-01-19T20:43:46.059Z,97033.78
2023-01-19T20:46:12.727Z,97042.31
2023-01-19T20:48:39.482Z,97036.69
2023-01-19T20:51:10.443Z,97041.81
2023-01-19T20:53:38.377Z,97041.94
2023-01-19T20:56:06.780Z,97042.06
2023-01-19T20:58:33.902Z,97047.19
2023-01-19T21:01:00.490Z,97052.59
2023-01-19T21:03:27.195Z,97054.78
2023-01-19T21:05:59.625Z,97045.88
2023-01-19T21:08:26.236Z,97052.56
2023-01-19T21:10:56.684Z,97052.88
2023-01-19T21:13:23.185Z,97066.09
2023-01-19T21:15:49.747Z,97064.34
2023-01-19T21:18:20.680Z,97073.38
2023-01-19T21:20:49.150Z,97066.19
2023-01-19T21:23:15.696Z,97069.00
2023-01-19T21:25:52.649Z,97066.00
2023-01-19T21:28:20.140Z,97063.91
2023-01-19T21:30:46.761Z,97070.31
2023-01-19T21:33:18.033Z,97064.06
2023-01-19T21:35:57.523Z,97069.16
2023-01-19T21:38:30.441Z,97071.94
2023-01-19T21:40:58.183Z,97070.66
2023-01-19T21:43:26.635Z,97072.66
2023-01-19T21:45:53.523Z,97081.94
2023-01-19T21:48:20.150Z,97076.97
2023-01-19T21:50:55.703Z,97083.31
2023-01-19T21:53:22.110Z,97090.19
2023-01-19T21:55:51.048Z,97084.88
2023-01-19T21:58:24.300Z,97085.66
2023-01-19T22:00:50.853Z,97088.59
2023-01-19T22:03:17.451Z,97091.56
2023-01-19T22:05:44.190Z,97097.13
2023-01-19T22:08:10.836Z,97100.56
2023-01-19T22:10:39.618Z,97099.00
2023-01-19T22:13:09.501Z,97102.72
2023-01-19T22:15:36.444Z,97108.59
2023-01-19T22:18:02.975Z,97104.88
2023-01-19T22:20:33.987Z,97110.75
2023-01-19T22:23:00.451Z,97114.00
2023-01-19T22:25:27.664Z,97120.84
2023-01-19T22:27:56.602Z,97121.91
2023-01-19T22:30:23.140Z,97124.09
2023-01-19T22:32:49.806Z,97119.88
2023-01-19T22:35:20.989Z,97123.13
2023-01-19T22:37:47.698Z,97122.75
2023-01-19T22:40:14.306Z,97129.97
2023-01-19T22:42:46.169Z,97130.84
2023-01-19T22:45:13.277Z,97132.72
2023-01-19T22:47:39.809Z,97139.38
2023-01-19T22:50:10.859Z,97139.97
2023-01-19T22:52:37.423Z,97132.50
2023-01-19T22:55:04.333Z,97135.75
2023-01-19T22:57:37.527Z,97133.88
2023-01-19T23:00:07.165Z,97140.25
2023-01-19T23:02:34.116Z,97139.16
2023-01-19T23:05:00.918Z,97145.03
2023-01-19T23:07:27.425Z,97147.28
2023-01-19T23:09:53.900Z,97141.53
2023-01-19T23:12:26.974Z,97148.94
2023-01-19T23:14:53.474Z,97150.53
2023-01-19T23:17:19.955Z,97146.41
2023-01-19T23:19:48.188Z,97153.66
2023-01-19T23:22:18.391Z,97152.66
2023-01-19T23:24:44.877Z,97150.53
2023-01-19T23:27:13.751Z,97158.91
2023-01-19T23:29:40.423Z,97155.97
2023-01-19T23:32:07.036Z,97156.28
2023-01-19T23:34:40.047Z,97159.69
2023-01-19T23:37:06.523Z,97160.50
2023-01-19T23:39:33.024Z,97164.41
2023-01-19T23:41:59.618Z,97156.66
2023-01-19T23:44:26.164Z,97165.09
2023-01-19T23:46:54.889Z,97168.69
2023-01-19T23:49:27.559Z,97171.22
2023-01-19T23:51:55.768Z,97169.09
2023-01-19T23:54:22.289Z,97165.84
2023-01-19T23:56:48.833Z,97178.25
2023-01-19T23:59:16.215Z,97170.53
